Latest Weather Observations for Holsworthy

IDN60901

Issued at 11:41 pm EST Saturday 22 June 2024 (issued every 10 minutes, with the page automatically refreshed every 10 minutes)

About weather observations | Map of Sydney area stations | Latest observations for Sydney area | Other Formats
Station Details ID: 066161 Name: HOLSWORTHY AERODROME AWS Lat: -33.99 Lon: 150.95 Height: 68.16 m
Data from the previous 72 hours. | See also: Recent months at Holsworthy
Date/Time
EST
Temp
°C
App
Temp
°C
Dew
Point
°C
Rel
Hum
%
Delta-T
°C
Wind Press
QNH
hPa
Press
MSL
hPa
Rain since
9am
mm
Dir  Spd
km/h
Gust
km/h
Spd
kts
Gust
kts
22/11:30pm 9.7 7.7 8.6 93 0.5 SW 9 11 5 6 1025.9 1025.9 3.2
22/11:00pm 9.8 7.0 8.6 92 0.6 SW 13 17 7 9 1026.1 1026.2 3.2
22/10:30pm 10.1 7.7 8.7 91 0.7 SW 11 17 6 9 1026.2 - 3.2
22/10:00pm 10.0 7.6 8.6 91 0.7 SW 11 17 6 9 1026.1 1026.2 3.2
22/09:30pm 10.4 8.1 9.0 91 0.7 SW 11 15 6 8 1026.1 1026.2 3.2
22/09:00pm 10.6 8.0 9.2 91 0.7 SW 13 19 7 10 1026.0 1026.1 3.2
22/08:45pm 10.5 8.3 9.3 92 0.6 WSW 11 17 6 9 1025.8 - 3.2
22/08:30pm 10.6 7.6 9.4 92 0.6 WSW 15 20 8 11 1025.7 - 3.2
22/08:27pm 10.6 7.6 9.4 92 0.6 SW 15 20 8 11 1025.8 - 3.0
22/08:00pm 10.5 8.3 9.3 92 0.6 WSW 11 17 6 9 1025.6 1025.7 2.8
22/07:30pm 10.5 8.6 9.1 91 0.7 SW 9 13 5 7 1025.7 1025.8 2.6
22/07:00pm 10.9 8.9 8.8 87 1.0 SW 9 11 5 6 1025.5 1025.6 2.0
22/06:30pm 10.9 9.4 9.0 88 0.9 SW 7 9 4 5 1025.3 - 2.0
22/06:00pm 11.2 9.3 8.9 86 1.1 SW 9 13 5 7 1025.0 1025.1 2.0
22/05:30pm 11.5 8.9 9.2 86 1.2 SW 13 17 7 9 1024.8 - 2.0
22/05:00pm 11.6 9.4 9.5 87 1.1 SW 11 19 6 10 1024.6 1024.7 2.0
22/04:30pm 12.2 9.7 9.8 85 1.2 SSW 13 20 7 11 1024.7 - 1.8
22/04:00pm 12.9 10.0 9.7 81 1.6 S 15 26 8 14 1024.6 1024.7 1.8
22/03:30pm 13.0 10.4 9.4 79 1.8 SSW 13 20 7 11 1024.3 - 1.4
22/03:00pm 14.3 10.4 8.7 69 2.8 SSW 19 33 10 18 1024.3 1024.4 1.2
22/02:30pm 15.0 11.1 9.4 69 2.9 SSW 20 28 11 15 1023.9 1024.0 1.2
22/02:00pm 14.6 12.1 9.6 72 2.6 SSW 13 26 7 14 1024.0 1024.1 1.2
22/01:30pm 14.1 12.2 10.5 79 1.9 SSW 11 19 6 10 1024.2 - 1.2
22/01:00pm 13.3 13.4 11.4 88 1.0 WNW 2 11 1 6 1024.4 1024.5 1.2
22/12:30pm 11.6 11.8 10.5 93 0.6 CALM 0 0 0 0 1024.7 1024.8 1.2
22/12:00pm 10.8 8.3 9.7 93 0.6 E 13 17 7 9 1025.4 1025.5 0.8
22/11:30am 11.1 10.6 9.5 90 0.8 N 2 7 1 4 1025.5 1025.6 0.4
22/11:00am 10.8 9.2 8.7 87 1.0 NNE 7 9 4 5 1025.8 1025.9 0.0
22/10:30am 10.4 10.0 8.2 86 1.1 CALM 0 11 0 6 1026.0 1026.1 0.0
22/10:00am 9.8 9.6 9.0 95 0.4 CALM 0 0 0 0 1025.9 1026.0 0.0
22/09:30am 9.3 9.0 8.7 96 0.3 CALM 0 0 0 0 1025.8 1025.9 0.0
22/09:00am 8.8 8.4 8.2 96 0.3 CALM 0 0 0 0 1025.6 1025.7 27.8
22/08:30am 8.7 7.9 8.1 96 0.3 WSW 2 9 1 5 1025.3 1025.4 27.8
22/08:00am 8.7 8.3 8.1 96 0.3 CALM 0 0 0 0 1025.2 1025.3 27.6
22/07:56am 8.6 8.1 8.0 96 0.3 CALM 0 0 0 0 1025.2 1025.3 27.4
22/07:30am 8.7 8.3 8.1 96 0.3 CALM 0 0 0 0 1025.1 1025.2 26.4
22/07:00am 8.6 8.1 7.8 95 0.4 CALM 0 4 0 2 1024.7 1024.8 24.2
22/06:52am 8.5 6.8 7.7 95 0.4 SSE 6 11 3 6 1024.6 1024.7 23.6
22/06:33am 8.5 5.9 7.9 96 0.3 ESE 11 17 6 9 1024.3 1024.4 22.2
22/06:30am 8.4 6.6 7.8 96 0.3 SSE 7 17 4 9 1024.4 1024.5 22.0
22/06:08am 8.4 7.9 7.8 96 0.3 CALM 0 0 0 0 1023.8 - 20.4
22/06:03am 8.4 7.9 7.8 96 0.3 CALM 0 0 0 0 1023.8 - 20.2
22/06:00am 8.4 7.9 7.8 96 0.3 CALM 0 0 0 0 1023.7 1023.7 20.2
22/05:44am 8.5 6.6 7.7 95 0.4 WSW 7 11 4 6 1023.7 1023.7 19.4
22/05:38am 8.5 6.7 7.9 96 0.3 SW 7 11 4 6 1023.6 1023.6 18.8
22/05:30am 8.4 6.6 7.8 96 0.3 SW 7 9 4 5 1023.7 1023.7 18.2
22/05:00am 8.4 5.8 7.6 95 0.4 SW 11 15 6 8 1023.2 1023.2 15.2
22/04:30am 8.4 6.1 7.6 95 0.4 WSW 9 11 5 6 1023.0 - 11.2
22/04:20am 8.4 6.5 7.6 95 0.4 WSW 7 9 4 5 1023.1 - 10.0
22/04:11am 8.4 6.7 7.6 95 0.4 W 6 7 3 4 1023.0 - 9.0
22/04:00am 8.4 6.5 7.6 95 0.4 W 7 9 4 5 1022.8 1022.8 8.4
22/03:30am 8.7 7.0 7.6 93 0.5 SW 6 9 3 5 1023.0 - 4.8
22/03:23am 8.7 6.8 7.6 93 0.5 SW 7 11 4 6 1023.0 1023.0 4.2
22/03:14am 8.8 6.5 7.6 92 0.6 SW 9 11 5 6 1022.9 1022.9 3.4
22/03:03am 8.8 6.5 7.4 91 0.7 SSW 9 11 5 6 1023.0 1023.0 2.8
22/03:00am 8.9 6.6 7.5 91 0.7 SSW 9 13 5 7 1023.0 1023.0 2.4
22/02:30am 9.4 7.3 6.5 82 1.4 SW 7 15 4 8 1022.8 1022.8 0.0
22/02:00am 9.2 7.0 6.3 82 1.3 SW 7 11 4 6 1022.6 1022.6 0.0
22/01:30am 9.3 6.7 6.0 80 1.5 SW 9 13 5 7 1022.5 1022.5 0.0
22/01:00am 9.3 6.6 5.7 78 1.6 SW 9 15 5 8 1022.5 1022.5 0.0
22/12:30am 9.1 6.0 5.7 79 1.6 SW 11 13 6 7 1022.4 - 0.0
22/12:00am 9.2 5.7 5.4 77 1.7 SW 13 20 7 11 1022.7 1022.7 0.0
 
Date/Time
EST
Temp
°C
App
Temp
°C
Dew
Point
°C
Rel
Hum
%
Delta-T
°C
Wind Press
QNH
hPa
Press
MSL
hPa
Rain since
9am
mm
Dir  Spd
km/h
Gust
km/h
Spd
kts
Gust
kts
21/11:30pm 8.4 5.7 5.5 82 1.3 SW 9 15 5 8 1022.7 1022.7 0.0
21/11:00pm 8.0 5.6 5.3 83 1.2 WSW 7 9 4 5 1022.4 1022.4 0.0
21/10:30pm 7.9 5.4 5.0 82 1.3 SW 7 13 4 7 1022.3 1022.3 0.0
21/10:00pm 7.9 5.1 5.2 83 1.2 WSW 9 13 5 7 1022.0 1022.0 0.0
21/09:30pm 8.1 5.3 5.2 82 1.3 SW 9 11 5 6 1021.9 1021.9 0.0
21/09:00pm 7.9 5.1 5.2 83 1.2 WSW 9 11 5 6 1021.7 1021.7 0.0
21/08:30pm 8.3 5.9 5.1 80 1.4 WSW 7 11 4 6 1021.4 - 0.0
21/08:00pm 8.6 5.8 5.0 78 1.6 WSW 9 11 5 6 1021.1 1021.1 0.0
21/07:30pm 9.3 6.1 5.3 76 1.8 WSW 11 15 6 8 1021.0 1021.0 0.0
21/07:00pm 8.9 6.2 5.8 81 1.4 W 9 11 5 6 1020.6 1020.6 0.0
21/06:30pm 9.6 7.3 5.8 77 1.7 W 7 9 4 5 1020.2 1020.2 0.0
21/06:00pm 11.9 9.6 5.8 66 2.8 SSW 7 13 4 7 1019.8 1019.8 0.0
21/05:30pm 12.6 10.4 6.4 66 3.0 S 7 11 4 6 1019.4 1019.4 0.0
21/05:00pm 13.2 11.3 7.6 69 2.7 SSW 7 9 4 5 1018.9 1018.9 0.0
21/04:30pm 14.2 12.1 8.2 67 3.0 SSE 9 13 5 7 1018.5 1018.5 0.0
21/04:00pm 14.8 11.9 8.3 65 3.3 SE 13 19 7 10 1018.1 1018.1 0.0
21/03:30pm 15.6 12.9 7.4 58 4.1 SSE 11 13 6 7 1017.7 1017.7 0.0
21/03:00pm 17.1 13.3 4.1 42 6.1 WSW 13 20 7 11 1017.5 1017.5 0.0
21/02:30pm 16.1 13.4 5.4 49 5.1 WNW 9 15 5 8 1017.4 1017.4 0.0
21/02:00pm 16.7 13.1 5.0 46 5.6 WSW 13 20 7 11 1017.4 1017.4 0.0
21/01:30pm 16.1 12.7 5.7 50 5.0 WSW 13 24 7 13 1017.3 1017.3 0.0
21/01:00pm 16.3 13.5 7.0 54 4.6 W 11 17 6 9 1017.3 1017.3 0.0
21/12:30pm 15.6 11.5 6.3 54 4.5 W 17 26 9 14 1017.5 1017.5 0.0
21/12:00pm 15.9 11.7 5.8 51 4.9 WSW 17 22 9 12 1017.6 1017.6 0.0
21/11:30am 16.0 12.3 6.4 53 4.7 WSW 15 24 8 13 1017.8 1017.8 0.0
21/11:00am 15.4 12.2 6.9 57 4.2 WSW 13 20 7 11 1018.1 1018.1 0.0
21/10:30am 14.5 12.9 8.7 68 2.9 W 7 13 4 7 1018.5 1018.5 0.0
21/10:00am 11.7 9.3 6.8 72 2.3 W 9 13 5 7 1018.6 1018.6 0.0
21/09:30am 10.7 8.8 6.6 76 1.9 W 6 11 3 6 1018.8 1018.8 0.0
21/09:00am 9.9 6.9 6.1 77 1.8 WSW 11 15 6 8 1018.6 1018.6 0.0
21/08:30am 8.8 5.7 5.7 81 1.4 W 11 15 6 8 1018.2 1018.2 0.0
21/08:00am 7.0 3.8 5.2 88 0.8 W 11 15 6 8 1018.1 1018.1 0.0
21/07:30am 5.0 1.9 3.8 92 0.5 W 9 11 5 6 1017.8 1017.8 0.0
21/07:00am 5.7 2.7 3.9 88 0.8 SW 9 11 5 6 1017.2 1017.2 0.0
21/06:30am 5.3 2.0 4.3 93 0.4 WSW 11 13 6 7 1017.1 1017.1 0.0
21/06:00am 4.5 1.8 3.6 94 0.4 NW 7 11 4 6 1016.9 1016.9 0.0
21/05:30am 5.0 3.6 3.7 91 0.5 CALM 0 0 0 0 1016.2 1016.2 0.0
21/05:00am 5.6 4.0 4.4 92 0.5 NW 2 7 1 4 1016.2 1016.2 0.0
21/04:30am 5.5 2.5 4.3 92 0.5 WNW 9 11 5 6 1016.3 1016.3 0.0
21/04:00am 6.7 3.9 5.0 89 0.7 SW 9 13 5 7 1015.9 1015.9 0.0
21/03:30am 5.4 4.2 4.5 94 0.4 CALM 0 0 0 0 1016.1 1016.1 0.0
21/03:00am 5.0 3.7 4.0 93 0.4 CALM 0 0 0 0 1016.0 1016.0 0.0
21/02:30am 5.4 4.1 4.2 92 0.5 CALM 0 0 0 0 1016.2 - 0.0
21/02:00am 5.5 4.2 4.2 91 0.6 CALM 0 0 0 0 1016.2 1016.2 0.0
21/01:30am 6.1 4.9 4.7 91 0.6 CALM 0 0 0 0 1016.1 1016.1 0.0
21/01:00am 5.9 4.7 4.5 91 0.6 CALM 0 0 0 0 1016.3 1016.3 0.0
21/12:30am 6.1 4.8 4.1 87 0.9 CALM 0 0 0 0 1016.2 1016.2 0.0
21/12:00am 6.8 5.6 4.6 86 1.0 CALM 0 0 0 0 1016.4 1016.4 0.0
 
Date/Time
EST
Temp
°C
App
Temp
°C
Dew
Point
°C
Rel
Hum
%
Delta-T
°C
Wind Press
QNH
hPa
Press
MSL
hPa
Rain since
9am
mm
Dir  Spd
km/h
Gust
km/h
Spd
kts
Gust
kts
20/11:30pm 6.9 5.8 4.9 87 0.9 CALM 0 0 0 0 1016.5 1016.5 0.0
20/11:00pm 7.2 6.1 5.2 87 0.9 CALM 0 0 0 0 1016.6 1016.6 0.0
20/10:30pm 6.8 5.6 4.5 85 1.0 CALM 0 0 0 0 1016.7 1016.7 0.0
20/10:00pm 8.5 7.3 4.7 77 1.7 CALM 0 0 0 0 1016.7 1016.7 0.0
20/09:30pm 7.5 6.2 4.3 80 1.4 CALM 0 0 0 0 1016.9 1016.9 0.0
20/09:00pm 9.5 6.1 3.9 68 2.5 SSE 11 13 6 7 1016.9 1016.9 0.0
20/08:30pm 9.1 5.3 3.9 70 2.3 SSE 13 13 7 7 1017.1 1017.1 0.0
20/08:00pm 8.2 4.9 4.6 78 1.6 SSE 11 11 6 6 1017.1 1017.1 0.0
20/07:30pm 7.4 6.1 4.2 80 1.4 CALM 0 0 0 0 1017.1 1017.1 0.0
20/07:00pm 7.4 6.1 4.0 79 1.5 CALM 0 0 0 0 1016.9 1016.9 0.0
20/06:30pm 8.3 6.9 3.8 73 2.0 CALM 0 0 0 0 1016.6 1016.6 0.0
20/06:00pm 9.6 8.3 4.0 68 2.5 CALM 0 0 0 0 1016.4 1016.4 0.0
20/05:30pm 9.8 8.6 4.8 71 2.2 CALM 0 0 0 0 1016.0 - 0.0
20/05:00pm 10.7 9.3 3.7 62 3.1 CALM 0 0 0 0 1016.0 1016.0 0.0
20/04:30pm 11.8 10.4 3.6 57 3.7 CALM 0 0 0 0 1016.0 1016.0 0.0
20/04:00pm 14.6 12.9 1.8 42 5.6 CALM 0 0 0 0 1016.0 1016.0 0.0
20/03:30pm 15.5 13.0 1.3 38 6.2 NE 4 7 2 4 1015.9 1015.9 0.0
20/03:00pm 15.3 12.3 2.1 41 5.9 NNE 7 11 4 6 1016.0 1016.0 0.0
20/02:30pm 15.4 12.6 2.9 43 5.7 NNE 7 11 4 6 1015.8 1015.8 0.0
20/02:00pm 15.0 11.9 1.5 40 5.9 NNE 7 11 4 6 1016.1 1016.1 0.0
20/01:30pm 14.6 11.7 2.8 45 5.3 N 7 15 4 8 1016.1 - 0.0
20/01:00pm 13.9 11.0 2.5 46 5.0 N 7 15 4 8 1016.3 1016.3 0.0
20/12:30pm 13.2 10.9 3.0 50 4.5 NNW 4 13 2 7 1016.8 1016.8 0.0
20/12:00pm 12.0 9.1 4.5 60 3.4 NNW 9 15 5 8 1017.2 1017.2 0.0
20/11:30am 10.6 7.8 3.4 61 3.2 NNW 7 11 4 6 1017.8 1017.8 0.0
20/11:00am 10.2 6.7 3.7 64 2.9 NW 11 13 6 7 1018.2 1018.2 0.0
20/10:30am 10.4 9.1 4.3 66 2.7 CALM 0 0 0 0 1018.2 1018.2 0.0
20/10:00am 8.7 7.3 3.3 69 2.3 CALM 0 0 0 0 1018.4 1018.4 0.0
20/09:30am 7.5 6.0 3.2 74 1.8 CALM 0 0 0 0 1018.4 - 0.0
20/09:00am 6.1 4.5 2.6 78 1.4 CALM 0 0 0 0 1018.5 1018.5 0.0
20/08:30am 5.4 3.9 2.8 83 1.1 CALM 0 0 0 0 1018.4 1018.4 0.0
20/08:00am 3.0 0.2 1.8 92 0.5 WNW 6 7 3 4 1018.2 1018.2 0.0
20/07:30am 1.6 -0.7 0.7 94 0.3 NNE 2 7 1 4 1017.6 1017.6 0.0
20/07:00am 2.6 -0.5 1.1 90 0.6 SW 7 11 4 6 1017.1 1017.1 0.0
20/06:30am 2.2 -0.9 1.2 93 0.4 WSW 7 9 4 5 1017.0 1017.0 0.0
20/06:00am 2.2 -0.8 1.0 92 0.5 NW 6 9 3 5 1017.3 1017.3 0.0
20/05:30am 1.4 -3.0 0.4 93 0.4 NNW 13 17 7 9 1017.3 1017.3 0.0
20/05:00am 2.6 -1.4 0.5 86 0.8 WSW 11 13 6 7 1016.6 1016.6 0.0
20/04:30am 2.4 -0.9 0.3 86 0.8 WSW 7 11 4 6 1016.7 1016.7 0.0
20/04:00am 4.1 0.3 1.5 83 1.0 SW 11 15 6 8 1016.6 1016.6 0.0
20/03:30am 3.1 -0.7 1.6 90 0.6 WSW 11 13 6 7 1016.8 1016.8 0.0
20/03:00am 2.6 -0.5 1.1 90 0.6 W 7 11 4 6 1017.0 1017.0 0.0
20/02:30am 2.8 -1.7 0.0 82 1.0 WSW 13 20 7 11 1017.1 1017.1 0.0
20/02:00am 2.8 -0.7 1.5 91 0.5 WSW 9 11 5 6 1017.0 1017.0 0.0
20/01:30am 3.6 0.2 1.6 87 0.8 WSW 9 13 5 7 1017.0 1017.0 0.0
20/01:00am 3.4 0.4 1.8 89 0.6 SW 7 11 4 6 1016.9 1016.9 0.0
20/12:30am 3.6 0.3 2.3 91 0.5 SW 9 13 5 7 1017.0 1017.0 0.0
20/12:00am 2.5 -1.0 1.5 93 0.4 SW 9 11 5 6 1017.3 1017.3 0.0

Latest Capital City Observations: Canberra | Sydney | Melbourne | Brisbane | Adelaide | Perth | Hobart | Darwin

Other formats

Comma delimited format used in spreadsheet applications
http://www.bom.gov.au/fwo/IDN60901/IDN60901.95761.axf

JavaScript Object Notation format (JSON) in row-major order
http://www.bom.gov.au/fwo/IDN60901/IDN60901.95761.json

Data quality

Most of these data are generated automatically and are frequently updated. Quality checks on data are not normally performed. It is possible for incorrect values to appear. Refer to information at About Latest Weather Observations and please check the disclaimer before using these data.